Etusivu
METAR-TAF:

METAR-TAF

Lentoasemat :

Béziers, Ranska

Leveyspiiri: 43-19N, Pituuspiiri: 003-21E, korkeus merenpinnasta: 17 m

Tämänhetkinen sää

Tämä raportti tehtiin 33 minuuttia sitten, kello 12.00 UTC
Tuuli 6 kn lännestä, vaihdellen lännen/lounaan ja luoteen välillä
Lämpötila 20°C
Kosteus 46%
Ilmanpaine 1023 hPa
Näkyvyys 10 km tai enemmän
ei pilviä alle 1500 m:ssä eikä cumulonimbus-pilviä

METAR: LFMU 241200Z AUTO 27006KT 240V310 CAVOK 20/08 Q1023 NOSIG

Aika: 13:33 (12:33 UTC)

Sääennuste

Tämä raportti tehtiin 4 tuntia ja 33 minuuttia sitten, kello 08.00 UTC
Ennuste voimassa 24. päivästä klo 09 UTC - 25. päivään klo 09 UTC
Tuuli 10 kn lännestä
Näkyvyys 10 km tai enemmän
ei pilviä alle 1500 m:ssä eikä cumulonimbus-pilviä
Todennäköisyys 30% :
Ajoittain
25. päivästä klo 03 UTC - 25. päivään klo 06 UTC
Tuuli 15 kn lännestä puuskistuen 25 kn:hen

TAF: LFMU 240800Z 2409/2509 28010KT CAVOK PROB30 TEMPO 2503/2506 28015G25KT

Säähavainnot ja -ennusteet yli 4000 lentoasemalta (METAR- ja TAF-raportit).

Käytössä olevat sääasemat on merkitty karttaan keltaisilla ja punaisilla pisteillä.

Aseta hiiri pisteen päälle nähdäksesi sääaseman nimen.

Klikkaa sitten nähdäksesi säähavainnot ja -ennusteet.

Kartan vaihtaminen: klikkaa mustalla rastilla varustettuja vihreitä pisteitä, niin voit zoomata sisään; viivalla varustettua vihreää pistettä, niin voit zoomata ulos tai vihreitä nuolia, niin pääset viereisille kartoille.


METAR-TAF: